PWSweather.com
Personal Weather Stations
Station Observations
WHITEHV
Whitehorse, YK y1a5w5

Whitehorse, YK y1a5w5

Lat: 60.829, Lon: -135.194

Elevation: 2165

Station Type: DAVIS VANTAGE PRO 2

Latest ConditionsUpdated 1:30:40 PM PDT Sunday, Apr 20, 2014
Currently Today's Max Today's Min Today's Average
Temperature 50.8°F10.4°C 51.6°F10.9°C 27.1°F-2.7°C 34.2°F1.2°C
Dew Point 28.5°F-1.9°C 29.4°F-1.4°C 17.9°F-7.8°C 23.1°F-4.9°C
Winds 2.8 mph SSE4.5 kmh SSE 3.3 mph W5.3 kmh W - 0.6 mph 1.0 kmh
Wind Gusts 7.0 mph11.3 kmh 9.0 mph14.5 kmh - -
Humidity 42% 78% 41% 65%
Pressure 29.62 in1003.0 mb 29.62 in1003.0 mb 29.42 in996.3 mb -
Hour Temp Dew Point Humidity Winds Wind Gusts Pressure Precip Precip Rate Daily Precip Total
01:30 PM 50.8°F10.4°C 28.5°F-1.9°C 42% 2.8 mph SSE4.5 kmh SSE 7.0 mph11.3 kmh 29.62 in1003.0 mb 0.00 in0.0 mm 0.00 in/hr0.0 mm/hr 0.00 in0.0 mm
01:00 PM 51.6°F10.9°C 28.6°F-1.9°C 41% 2.6 mph W4.2 kmh W 9.0 mph14.5 kmh 29.62 in1003.0 mb 0.00 in0.0 mm 0.00 in/hr0.0 mm/hr 0.00 in0.0 mm
12:30 PM 50.1°F10.1°C 29.0°F-1.7°C 44% 0.9 mph SW1.4 kmh SW 4.0 mph6.4 kmh 29.61 in1002.7 mb 0.00 in0.0 mm 0.00 in/hr0.0 mm/hr 0.00 in0.0 mm
12:00 PM 47.4°F8.6°C 28.7°F-1.8°C 48% 0.5 mph W0.8 kmh W 2.0 mph3.2 kmh 29.60 in1002.4 mb 0.00 in0.0 mm 0.00 in/hr0.0 mm/hr 0.00 in0.0 mm
11:31 AM 46.6°F8.1°C 29.4°F-1.4°C 51% 3.3 mph W5.3 kmh W 8.0 mph12.9 kmh 29.59 in1002.0 mb 0.00 in0.0 mm 0.00 in/hr0.0 mm/hr 0.00 in0.0 mm
11:00 AM 44.7°F7.1°C 28.6°F-1.9°C 53% 1.8 mph SSE2.9 kmh SSE 9.0 mph14.5 kmh 29.58 in1001.7 mb 0.00 in0.0 mm 0.00 in/hr0.0 mm/hr 0.00 in0.0 mm
10:30 AM 43.9°F6.6°C 28.3°F-2.1°C 54% 1.7 mph E2.7 kmh E 6.0 mph9.7 kmh 29.58 in1001.7 mb 0.00 in0.0 mm 0.00 in/hr0.0 mm/hr 0.00 in0.0 mm
10:00 AM 41.2°F5.1°C 28.0°F-2.2°C 59% 0.9 mph E1.4 kmh E 3.0 mph4.8 kmh 29.57 in1001.4 mb 0.00 in0.0 mm 0.00 in/hr0.0 mm/hr 0.00 in0.0 mm
09:30 AM 36.6°F2.6°C 26.3°F-3.2°C 66% 0.9 mph S1.4 kmh S 2.0 mph3.2 kmh 29.57 in1001.4 mb 0.00 in0.0 mm 0.00 in/hr0.0 mm/hr 0.00 in0.0 mm
09:00 AM 32.5°F0.3°C 23.8°F-4.6°C 70% 0.4 mph NW0.6 kmh NW 2.0 mph3.2 kmh 29.56 in1001.0 mb 0.00 in0.0 mm 0.00 in/hr0.0 mm/hr 0.00 in0.0 mm
08:30 AM 30.2°F-1.0°C 23.9°F-4.5°C 77% Calm Calm -- 29.56 in1001.0 mb 0.00 in0.0 mm 0.00 in/hr0.0 mm/hr 0.00 in0.0 mm
08:00 AM 29.3°F-1.5°C 23.0°F-5.0°C 77% Calm Calm -- 29.54 in1000.3 mb 0.00 in0.0 mm 0.00 in/hr0.0 mm/hr 0.00 in0.0 mm
07:30 AM 28.8°F-1.8°C 22.8°F-5.1°C 78% Calm Calm -- 29.53 in1000.0 mb 0.00 in0.0 mm 0.00 in/hr0.0 mm/hr 0.00 in0.0 mm
07:00 AM 28.5°F-1.9°C 22.5°F-5.3°C 78% Calm Calm -- 29.52 in999.7 mb 0.00 in0.0 mm 0.00 in/hr0.0 mm/hr 0.00 in0.0 mm
06:30 AM 28.2°F-2.1°C 22.3°F-5.4°C 78% Calm Calm -- 29.51 in999.3 mb 0.00 in0.0 mm 0.00 in/hr0.0 mm/hr 0.00 in0.0 mm
06:00 AM 27.9°F-2.3°C 21.6°F-5.8°C 77% Calm Calm -- 29.51 in999.3 mb 0.00 in0.0 mm 0.00 in/hr0.0 mm/hr 0.00 in0.0 mm
05:30 AM 27.6°F-2.4°C 21.1°F-6.1°C 76% Calm Calm -- 29.50 in999.0 mb 0.00 in0.0 mm 0.00 in/hr0.0 mm/hr 0.00 in0.0 mm
05:00 AM 27.4°F-2.6°C 20.5°F-6.4°C 75% Calm Calm -- 29.49 in998.6 mb 0.00 in0.0 mm 0.00 in/hr0.0 mm/hr 0.00 in0.0 mm
04:30 AM 27.3°F-2.6°C 20.4°F-6.4°C 75% Calm Calm -- 29.48 in998.3 mb 0.00 in0.0 mm 0.00 in/hr0.0 mm/hr 0.00 in0.0 mm
04:00 AM 27.2°F-2.7°C 20.0°F-6.7°C 74% Calm Calm -- 29.47 in998.0 mb 0.00 in0.0 mm 0.00 in/hr0.0 mm/hr 0.00 in0.0 mm
03:30 AM 27.1°F-2.7°C 19.9°F-6.7°C 74% Calm Calm -- 29.46 in997.6 mb 0.00 in0.0 mm 0.00 in/hr0.0 mm/hr 0.00 in0.0 mm
03:00 AM 27.2°F-2.7°C 19.4°F-7.0°C 72% Calm Calm -- 29.45 in997.3 mb 0.00 in0.0 mm 0.00 in/hr0.0 mm/hr 0.00 in0.0 mm
02:30 AM 27.5°F-2.5°C 19.0°F-7.2°C 70% Calm Calm -- 29.45 in997.3 mb 0.00 in0.0 mm 0.00 in/hr0.0 mm/hr 0.00 in0.0 mm
02:00 AM 27.9°F-2.3°C 18.7°F-7.4°C 68% Calm Calm -- 29.44 in997.0 mb 0.00 in0.0 mm 0.00 in/hr0.0 mm/hr 0.00 in0.0 mm
01:30 AM 28.6°F-1.9°C 18.7°F-7.4°C 66% Calm Calm -- 29.44 in997.0 mb 0.00 in0.0 mm 0.00 in/hr0.0 mm/hr 0.00 in0.0 mm
01:00 AM 29.5°F-1.4°C 18.5°F-7.5°C 63% Calm Calm -- 29.43 in996.6 mb 0.00 in0.0 mm 0.00 in/hr0.0 mm/hr 0.00 in0.0 mm
12:30 AM 30.7°F-0.7°C 18.0°F-7.8°C 59% Calm Calm -- 29.42 in996.3 mb 0.00 in0.0 mm 0.00 in/hr0.0 mm/hr 0.00 in0.0 mm
12:00 AM 32.2°F0.1°C 17.9°F-7.8°C 55% Calm Calm -- 29.42 in996.3 mb 0.00 in0.0 mm 0.00 in/hr0.0 mm/hr 0.00 in0.0 mm